Terminal Aerodrome Forecast
Issued by NWS

Home | Current Version | Previous Version | Text Only | Print | Product List | Glossary On
Versions: 1 2 3 4 5 6 7 8 9 10 11 12 13 14 15 16 17 18
000
FTAK31 PANC 240101 AAA
TAFADU
TAF AMD
PADU 240101Z 2401/2424 21015KT P6SM SCT015 OVC025
      TEMPO 2401/2405 20018G25KT SCT025
     FM241200 25011KT 6SM -SHRA BR SCT008 OVC015=

USA.gov is the U.S. government's official web portal to all federal, state and local government web resources and services.